sensor_id;sensor_type;location;lat;lon;timestamp;pressure;altitude;pressure_sealevel;temperature;humidity
28606;BME280;46498;49.968;7.754;2022-12-13T00:04:35;96466.00;;;-4.26;100.00
28606;BME280;46498;49.968;7.754;2022-12-13T00:09:36;96460.00;;;-4.43;100.00
28606;BME280;46498;49.968;7.754;2022-12-13T00:14:37;96457.00;;;-4.40;100.00
28606;BME280;46498;49.968;7.754;2022-12-13T00:19:38;96444.00;;;-4.40;100.00
28606;BME280;46498;49.968;7.754;2022-12-13T00:24:38;96443.00;;;-4.32;100.00
28606;BME280;46498;49.968;7.754;2022-12-13T00:29:46;96448.00;;;-4.41;100.00
28606;BME280;46498;49.968;7.754;2022-12-13T00:34:47;96435.00;;;-4.27;100.00
28606;BME280;46498;49.968;7.754;2022-12-13T00:39:48;96430.00;;;-4.44;100.00
28606;BME280;46498;49.968;7.754;2022-12-13T00:44:48;96428.00;;;-4.35;100.00
28606;BME280;46498;49.968;7.754;2022-12-13T00:49:50;96419.00;;;-4.39;100.00
28606;BME280;46498;49.968;7.754;2022-12-13T00:54:50;96411.00;;;-4.53;100.00
28606;BME280;46498;49.968;7.754;2022-12-13T00:59:51;96414.00;;;-4.36;100.00
28606;BME280;46498;49.968;7.754;2022-12-13T01:04:52;96417.00;;;-4.61;100.00
28606;BME280;46498;49.968;7.754;2022-12-13T01:09:53;96416.00;;;-4.46;100.00
28606;BME280;46498;49.968;7.754;2022-12-13T01:14:53;96413.00;;;-4.31;100.00
28606;BME280;46498;49.968;7.754;2022-12-13T01:19:57;96411.00;;;-4.31;100.00
28606;BME280;46498;49.968;7.754;2022-12-13T01:24:58;96417.00;;;-4.42;100.00
28606;BME280;46498;49.968;7.754;2022-12-13T01:29:58;96418.00;;;-4.36;100.00
28606;BME280;46498;49.968;7.754;2022-12-13T01:34:59;96416.00;;;-4.67;100.00
28606;BME280;46498;49.968;7.754;2022-12-13T01:40:00;96406.00;;;-4.73;100.00
28606;BME280;46498;49.968;7.754;2022-12-13T01:45:05;96406.00;;;-4.61;100.00
28606;BME280;46498;49.968;7.754;2022-12-13T01:50:12;96398.00;;;-4.71;100.00
28606;BME280;46498;49.968;7.754;2022-12-13T01:55:14;96392.00;;;-4.77;100.00
28606;BME280;46498;49.968;7.754;2022-12-13T02:00:16;96394.00;;;-4.74;100.00
28606;BME280;46498;49.968;7.754;2022-12-13T02:05:27;96393.00;;;-4.75;100.00
28606;BME280;46498;49.968;7.754;2022-12-13T02:10:31;96385.00;;;-4.84;100.00
28606;BME280;46498;49.968;7.754;2022-12-13T02:15:49;96388.00;;;-4.71;100.00
28606;BME280;46498;49.968;7.754;2022-12-13T02:21:26;96395.00;;;-4.67;100.00
28606;BME280;46498;49.968;7.754;2022-12-13T02:26:57;96405.00;;;-4.80;100.00
28606;BME280;46498;49.968;7.754;2022-12-13T02:32:03;96404.00;;;-4.91;100.00
28606;BME280;46498;49.968;7.754;2022-12-13T02:37:25;96394.00;;;-4.86;100.00
28606;BME280;46498;49.968;7.754;2022-12-13T02:42:35;96395.00;;;-4.97;100.00
28606;BME280;46498;49.968;7.754;2022-12-13T02:47:40;96394.00;;;-4.87;100.00
28606;BME280;46498;49.968;7.754;2022-12-13T02:52:43;96391.00;;;-4.84;100.00
28606;BME280;46498;49.968;7.754;2022-12-13T02:57:46;96384.00;;;-5.28;100.00
28606;BME280;46498;49.968;7.754;2022-12-13T03:03:30;96387.00;;;-5.38;100.00
28606;BME280;46498;49.968;7.754;2022-12-13T03:20:39;96385.00;;;-5.31;100.00
28606;BME280;46498;49.968;7.754;2022-12-13T03:25:40;96385.00;;;-5.36;100.00
28606;BME280;46498;49.968;7.754;2022-12-13T03:30:40;96382.00;;;-5.23;100.00
28606;BME280;46498;49.968;7.754;2022-12-13T03:35:42;96385.00;;;-5.20;100.00
28606;BME280;46498;49.968;7.754;2022-12-13T03:40:45;96387.00;;;-5.39;100.00
28606;BME280;46498;49.968;7.754;2022-12-13T03:45:46;96384.00;;;-5.48;100.00
28606;BME280;46498;49.968;7.754;2022-12-13T03:50:48;96384.00;;;-5.48;100.00
28606;BME280;46498;49.968;7.754;2022-12-13T03:55:49;96380.00;;;-5.69;100.00
28606;BME280;46498;49.968;7.754;2022-12-13T04:00:50;96378.00;;;-5.94;100.00
28606;BME280;46498;49.968;7.754;2022-12-13T04:05:51;96373.00;;;-5.77;100.00
28606;BME280;46498;49.968;7.754;2022-12-13T04:10:52;96368.00;;;-6.01;100.00
28606;BME280;46498;49.968;7.754;2022-12-13T04:15:52;96370.00;;;-5.85;100.00
28606;BME280;46498;49.968;7.754;2022-12-13T04:20:53;96361.00;;;-5.99;100.00
28606;BME280;46498;49.968;7.754;2022-12-13T04:25:54;96373.00;;;-5.87;100.00
28606;BME280;46498;49.968;7.754;2022-12-13T04:30:55;96362.00;;;-5.74;100.00
28606;BME280;46498;49.968;7.754;2022-12-13T04:35:56;96374.00;;;-5.66;100.00
28606;BME280;46498;49.968;7.754;2022-12-13T04:41:07;96379.00;;;-5.51;100.00
28606;BME280;46498;49.968;7.754;2022-12-13T04:46:08;96372.00;;;-5.56;100.00
28606;BME280;46498;49.968;7.754;2022-12-13T04:51:09;96381.00;;;-5.59;100.00
28606;BME280;46498;49.968;7.754;2022-12-13T04:56:10;96382.00;;;-5.47;100.00
28606;BME280;46498;49.968;7.754;2022-12-13T05:01:11;96375.00;;;-5.64;100.00
28606;BME280;46498;49.968;7.754;2022-12-13T05:06:13;96375.00;;;-5.74;100.00
28606;BME280;46498;49.968;7.754;2022-12-13T05:11:28;96371.00;;;-5.80;100.00
28606;BME280;46498;49.968;7.754;2022-12-13T05:16:36;96366.00;;;-5.78;100.00
28606;BME280;46498;49.968;7.754;2022-12-13T05:21:37;96354.00;;;-5.81;100.00
28606;BME280;46498;49.968;7.754;2022-12-13T05:26:38;96341.00;;;-5.88;100.00
28606;BME280;46498;49.968;7.754;2022-12-13T05:31:39;96344.00;;;-5.96;100.00
28606;BME280;46498;49.968;7.754;2022-12-13T05:36:39;96340.00;;;-5.88;100.00
28606;BME280;46498;49.968;7.754;2022-12-13T05:41:41;96336.00;;;-5.96;100.00
28606;BME280;46498;49.968;7.754;2022-12-13T05:46:42;96332.00;;;-5.95;100.00
28606;BME280;46498;49.968;7.754;2022-12-13T05:51:43;96334.00;;;-5.87;100.00
28606;BME280;46498;49.968;7.754;2022-12-13T05:56:44;96337.00;;;-5.92;100.00
28606;BME280;46498;49.968;7.754;2022-12-13T06:01:45;96345.00;;;-6.00;100.00
28606;BME280;46498;49.968;7.754;2022-12-13T06:06:46;96340.00;;;-5.90;100.00
28606;BME280;46498;49.968;7.754;2022-12-13T06:11:51;96353.00;;;-5.94;100.00
28606;BME280;46498;49.968;7.754;2022-12-13T06:17:02;96339.00;;;-5.99;100.00
28606;BME280;46498;49.968;7.754;2022-12-13T06:22:03;96351.00;;;-6.00;100.00
28606;BME280;46498;49.968;7.754;2022-12-13T06:27:05;96341.00;;;-6.06;100.00
28606;BME280;46498;49.968;7.754;2022-12-13T06:32:05;96337.00;;;-6.19;100.00
28606;BME280;46498;49.968;7.754;2022-12-13T06:37:10;96340.00;;;-6.20;100.00
28606;BME280;46498;49.968;7.754;2022-12-13T06:42:16;96352.00;;;-6.13;100.00
28606;BME280;46498;49.968;7.754;2022-12-13T06:47:26;96345.00;;;-6.24;100.00
28606;BME280;46498;49.968;7.754;2022-12-13T06:52:33;96357.00;;;-6.17;100.00
28606;BME280;46498;49.968;7.754;2022-12-13T06:57:34;96358.00;;;-6.16;100.00
28606;BME280;46498;49.968;7.754;2022-12-13T07:02:35;96355.00;;;-6.31;100.00
28606;BME280;46498;49.968;7.754;2022-12-13T07:07:38;96359.00;;;-6.27;100.00
28606;BME280;46498;49.968;7.754;2022-12-13T07:12:39;96361.00;;;-6.36;100.00
28606;BME280;46498;49.968;7.754;2022-12-13T07:17:39;96360.00;;;-6.07;100.00
28606;BME280;46498;49.968;7.754;2022-12-13T07:22:42;96363.00;;;-6.16;100.00
28606;BME280;46498;49.968;7.754;2022-12-13T07:28:02;96366.00;;;-5.97;100.00
28606;BME280;46498;49.968;7.754;2022-12-13T07:33:04;96364.00;;;-5.88;100.00
28606;BME280;46498;49.968;7.754;2022-12-13T07:38:07;96383.00;;;-5.86;100.00
28606;BME280;46498;49.968;7.754;2022-12-13T07:43:09;96369.00;;;-5.52;100.00
28606;BME280;46498;49.968;7.754;2022-12-13T07:48:09;96365.00;;;-5.51;100.00
28606;BME280;46498;49.968;7.754;2022-12-13T07:53:10;96373.00;;;-5.31;100.00
28606;BME280;46498;49.968;7.754;2022-12-13T07:58:14;96372.00;;;-5.29;100.00
28606;BME280;46498;49.968;7.754;2022-12-13T08:03:15;96376.00;;;-5.46;100.00
28606;BME280;46498;49.968;7.754;2022-12-13T08:08:26;96370.00;;;-5.42;100.00
28606;BME280;46498;49.968;7.754;2022-12-13T08:13:32;96366.00;;;-5.60;100.00
28606;BME280;46498;49.968;7.754;2022-12-13T08:18:34;96355.00;;;-5.63;100.00
28606;BME280;46498;49.968;7.754;2022-12-13T08:23:35;96359.00;;;-5.44;100.00
28606;BME280;46498;49.968;7.754;2022-12-13T08:28:36;96368.00;;;-5.28;100.00
28606;BME280;46498;49.968;7.754;2022-12-13T08:33:37;96356.00;;;-5.69;100.00
28606;BME280;46498;49.968;7.754;2022-12-13T08:38:40;96355.00;;;-5.60;100.00
28606;BME280;46498;49.968;7.754;2022-12-13T08:43:41;96365.00;;;-5.42;100.00
28606;BME280;46498;49.968;7.754;2022-12-13T08:48:42;96372.00;;;-5.47;100.00
28606;BME280;46498;49.968;7.754;2022-12-13T08:53:45;96385.00;;;-5.03;100.00
28606;BME280;46498;49.968;7.754;2022-12-13T08:58:49;96394.00;;;-4.87;100.00
28606;BME280;46498;49.968;7.754;2022-12-13T09:03:54;96399.00;;;-5.01;100.00
28606;BME280;46498;49.968;7.754;2022-12-13T09:08:55;96391.00;;;-5.16;100.00
28606;BME280;46498;49.968;7.754;2022-12-13T09:13:56;96388.00;;;-5.22;100.00
28606;BME280;46498;49.968;7.754;2022-12-13T09:19:03;96387.00;;;-5.48;100.00
28606;BME280;46498;49.968;7.754;2022-12-13T09:24:26;96380.00;;;-5.76;100.00
28606;BME280;46498;49.968;7.754;2022-12-13T09:29:28;96391.00;;;-5.54;100.00
28606;BME280;46498;49.968;7.754;2022-12-13T09:34:28;96395.00;;;-5.51;100.00
28606;BME280;46498;49.968;7.754;2022-12-13T09:39:29;96392.00;;;-5.70;100.00
28606;BME280;46498;49.968;7.754;2022-12-13T09:44:35;96395.00;;;-5.46;100.00
28606;BME280;46498;49.968;7.754;2022-12-13T09:49:47;96411.00;;;-5.56;100.00
28606;BME280;46498;49.968;7.754;2022-12-13T09:54:57;96401.00;;;-5.47;100.00
28606;BME280;46498;49.968;7.754;2022-12-13T10:00:01;96386.00;;;-5.10;100.00
28606;BME280;46498;49.968;7.754;2022-12-13T10:05:43;96386.00;;;-4.57;100.00
28606;BME280;46498;49.968;7.754;2022-12-13T10:10:45;96377.00;;;-4.68;100.00
28606;BME280;46498;49.968;7.754;2022-12-13T10:16:03;96374.00;;;-4.56;100.00
28606;BME280;46498;49.968;7.754;2022-12-13T10:21:09;96376.00;;;-4.16;100.00
28606;BME280;46498;49.968;7.754;2022-12-13T10:26:12;96371.00;;;-4.02;100.00
28606;BME280;46498;49.968;7.754;2022-12-13T10:31:25;96362.00;;;-3.29;100.00
28606;BME280;46498;49.968;7.754;2022-12-13T10:36:31;96359.00;;;-3.57;98.02
28606;BME280;46498;49.968;7.754;2022-12-13T10:41:37;96354.00;;;-3.74;100.00
28606;BME280;46498;49.968;7.754;2022-12-13T10:46:41;96365.00;;;-3.32;99.69
28606;BME280;46498;49.968;7.754;2022-12-13T10:51:42;96345.00;;;-3.55;93.89
28606;BME280;46498;49.968;7.754;2022-12-13T10:56:49;96349.00;;;-3.75;95.24
28606;BME280;46498;49.968;7.754;2022-12-13T11:01:53;96351.00;;;-3.91;96.89
28606;BME280;46498;49.968;7.754;2022-12-13T11:06:57;96357.00;;;-3.95;97.07
28606;BME280;46498;49.968;7.754;2022-12-13T11:12:03;96350.00;;;-3.80;96.71
28606;BME280;46498;49.968;7.754;2022-12-13T11:17:17;96354.00;;;-3.82;95.62
28606;BME280;46498;49.968;7.754;2022-12-13T11:22:38;96341.00;;;-3.72;95.34
28606;BME280;46498;49.968;7.754;2022-12-13T11:35:06;96325.00;;;-3.63;95.10
28606;BME280;46498;49.968;7.754;2022-12-13T11:40:36;96309.00;;;-3.19;93.10
28606;BME280;46498;49.968;7.754;2022-12-13T11:45:46;96315.00;;;-3.08;90.72
28606;BME280;46498;49.968;7.754;2022-12-13T11:50:51;96310.00;;;-3.39;89.86
28606;BME280;46498;49.968;7.754;2022-12-13T12:08:22;96269.00;;;-2.74;85.91
28606;BME280;46498;49.968;7.754;2022-12-13T12:13:37;96281.00;;;-2.48;84.90
28606;BME280;46498;49.968;7.754;2022-12-13T12:18:52;96268.00;;;-2.73;78.96
28606;BME280;46498;49.968;7.754;2022-12-13T12:27:13;96262.00;;;-2.86;78.28
28606;BME280;46498;49.968;7.754;2022-12-13T12:32:43;96257.00;;;-3.19;78.81
28606;BME280;46498;49.968;7.754;2022-12-13T12:43:55;96260.00;;;-3.26;80.56
28606;BME280;46498;49.968;7.754;2022-12-13T12:49:54;96259.00;;;-3.32;81.80
28606;BME280;46498;49.968;7.754;2022-12-13T12:58:03;96260.00;;;-3.34;83.41
28606;BME280;46498;49.968;7.754;2022-12-13T13:03:17;96264.00;;;-3.37;81.91
28606;BME280;46498;49.968;7.754;2022-12-13T13:10:16;96269.00;;;-3.29;81.88
28606;BME280;46498;49.968;7.754;2022-12-13T13:16:27;96270.00;;;-3.10;83.59
28606;BME280;46498;49.968;7.754;2022-12-13T13:21:33;96250.00;;;-3.53;83.17
28606;BME280;46498;49.968;7.754;2022-12-13T13:26:55;96251.00;;;-3.37;83.50
28606;BME280;46498;49.968;7.754;2022-12-13T13:33:49;96257.00;;;-3.18;84.87
28606;BME280;46498;49.968;7.754;2022-12-13T13:38:51;96249.00;;;-3.25;88.27
28606;BME280;46498;49.968;7.754;2022-12-13T13:43:53;96243.00;;;-3.20;86.01
28606;BME280;46498;49.968;7.754;2022-12-13T13:48:59;96238.00;;;-2.68;83.31
28606;BME280;46498;49.968;7.754;2022-12-13T13:54:27;96229.00;;;-2.95;82.25
28606;BME280;46498;49.968;7.754;2022-12-13T14:00:08;96226.00;;;-2.91;83.30
28606;BME280;46498;49.968;7.754;2022-12-13T14:22:04;96245.00;;;-3.30;85.91
28606;BME280;46498;49.968;7.754;2022-12-13T14:27:32;96247.00;;;-3.87;89.04
28606;BME280;46498;49.968;7.754;2022-12-13T14:32:37;96228.00;;;-4.13;91.14
28606;BME280;46498;49.968;7.754;2022-12-13T14:37:39;96230.00;;;-4.22;92.95
28606;BME280;46498;49.968;7.754;2022-12-13T14:42:40;96218.00;;;-4.40;93.49
28606;BME280;46498;49.968;7.754;2022-12-13T14:47:48;96213.00;;;-4.66;95.64
28606;BME280;46498;49.968;7.754;2022-12-13T14:52:49;96212.00;;;-4.78;96.90
28606;BME280;46498;49.968;7.754;2022-12-13T14:57:56;96224.00;;;-4.70;96.78
28606;BME280;46498;49.968;7.754;2022-12-13T15:03:00;96230.00;;;-4.67;96.80
28606;BME280;46498;49.968;7.754;2022-12-13T15:08:07;96231.00;;;-4.63;96.34
28606;BME280;46498;49.968;7.754;2022-12-13T15:14:05;96227.00;;;-4.65;96.77
28606;BME280;46498;49.968;7.754;2022-12-13T15:19:24;96222.00;;;-4.75;97.04
28606;BME280;46498;49.968;7.754;2022-12-13T15:24:39;96195.00;;;-4.87;97.92
28606;BME280;46498;49.968;7.754;2022-12-13T15:29:52;96200.00;;;-4.96;98.45
28606;BME280;46498;49.968;7.754;2022-12-13T15:34:54;96192.00;;;-4.91;97.77
28606;BME280;46498;49.968;7.754;2022-12-13T15:39:58;96188.00;;;-5.04;98.72
28606;BME280;46498;49.968;7.754;2022-12-13T15:45:04;96169.00;;;-5.02;98.78
28606;BME280;46498;49.968;7.754;2022-12-13T15:50:06;96155.00;;;-5.09;99.59
28606;BME280;46498;49.968;7.754;2022-12-13T15:55:35;96155.00;;;-4.98;99.14
28606;BME280;46498;49.968;7.754;2022-12-13T16:00:36;96142.00;;;-5.07;99.25
28606;BME280;46498;49.968;7.754;2022-12-13T16:05:46;96142.00;;;-4.98;98.50
28606;BME280;46498;49.968;7.754;2022-12-13T16:10:51;96140.00;;;-4.97;98.78
28606;BME280;46498;49.968;7.754;2022-12-13T16:15:57;96140.00;;;-4.92;98.39
28606;BME280;46498;49.968;7.754;2022-12-13T16:21:00;96157.00;;;-5.01;99.11
28606;BME280;46498;49.968;7.754;2022-12-13T16:26:01;96155.00;;;-5.03;99.46
28606;BME280;46498;49.968;7.754;2022-12-13T16:31:28;96153.00;;;-5.07;100.00
28606;BME280;46498;49.968;7.754;2022-12-13T16:36:35;96145.00;;;-5.02;100.00
28606;BME280;46498;49.968;7.754;2022-12-13T16:41:37;96148.00;;;-5.07;100.00
28606;BME280;46498;49.968;7.754;2022-12-13T16:46:39;96142.00;;;-5.09;100.00
28606;BME280;46498;49.968;7.754;2022-12-13T16:52:19;96140.00;;;-5.15;100.00
28606;BME280;46498;49.968;7.754;2022-12-13T16:57:21;96128.00;;;-5.13;100.00
28606;BME280;46498;49.968;7.754;2022-12-13T17:02:22;96123.00;;;-5.13;100.00
28606;BME280;46498;49.968;7.754;2022-12-13T17:07:23;96120.00;;;-5.13;100.00
28606;BME280;46498;49.968;7.754;2022-12-13T17:12:24;96124.00;;;-5.07;100.00
28606;BME280;46498;49.968;7.754;2022-12-13T17:17:26;96122.00;;;-5.03;100.00
28606;BME280;46498;49.968;7.754;2022-12-13T17:22:27;96124.00;;;-4.99;100.00
28606;BME280;46498;49.968;7.754;2022-12-13T17:27:27;96110.00;;;-4.99;100.00
28606;BME280;46498;49.968;7.754;2022-12-13T17:32:29;96107.00;;;-5.13;100.00
28606;BME280;46498;49.968;7.754;2022-12-13T17:37:30;96109.00;;;-5.18;100.00
28606;BME280;46498;49.968;7.754;2022-12-13T17:42:33;96113.00;;;-5.14;100.00
28606;BME280;46498;49.968;7.754;2022-12-13T17:47:34;96120.00;;;-5.13;100.00
28606;BME280;46498;49.968;7.754;2022-12-13T17:52:36;96093.00;;;-5.24;100.00
28606;BME280;46498;49.968;7.754;2022-12-13T17:57:37;96077.00;;;-5.15;100.00
28606;BME280;46498;49.968;7.754;2022-12-13T18:02:38;96082.00;;;-5.12;100.00
28606;BME280;46498;49.968;7.754;2022-12-13T18:07:39;96069.00;;;-5.10;100.00
28606;BME280;46498;49.968;7.754;2022-12-13T18:12:40;96059.00;;;-5.16;100.00
28606;BME280;46498;49.968;7.754;2022-12-13T18:17:41;96072.00;;;-5.08;99.37
28606;BME280;46498;49.968;7.754;2022-12-13T18:23:11;96077.00;;;-5.03;99.96
28606;BME280;46498;49.968;7.754;2022-12-13T18:28:13;96076.00;;;-5.07;100.00
28606;BME280;46498;49.968;7.754;2022-12-13T18:33:13;96068.00;;;-5.09;100.00
28606;BME280;46498;49.968;7.754;2022-12-13T18:38:14;96069.00;;;-5.03;100.00
28606;BME280;46498;49.968;7.754;2022-12-13T18:43:16;96087.00;;;-5.12;100.00
28606;BME280;46498;49.968;7.754;2022-12-13T18:48:18;96082.00;;;-5.10;100.00
28606;BME280;46498;49.968;7.754;2022-12-13T18:53:19;96073.00;;;-5.11;100.00
28606;BME280;46498;49.968;7.754;2022-12-13T18:58:20;96078.00;;;-5.21;100.00
28606;BME280;46498;49.968;7.754;2022-12-13T19:03:21;96070.00;;;-5.21;100.00
28606;BME280;46498;49.968;7.754;2022-12-13T19:08:22;96066.00;;;-5.17;100.00
28606;BME280;46498;49.968;7.754;2022-12-13T19:13:26;96070.00;;;-5.18;100.00
28606;BME280;46498;49.968;7.754;2022-12-13T19:18:28;96062.00;;;-5.25;100.00
28606;BME280;46498;49.968;7.754;2022-12-13T19:23:29;96053.00;;;-5.32;100.00
28606;BME280;46498;49.968;7.754;2022-12-13T19:28:31;96039.00;;;-5.34;100.00
28606;BME280;46498;49.968;7.754;2022-12-13T19:33:33;96041.00;;;-5.37;100.00
28606;BME280;46498;49.968;7.754;2022-12-13T19:38:34;96035.00;;;-5.30;100.00
28606;BME280;46498;49.968;7.754;2022-12-13T19:43:35;96027.00;;;-5.32;100.00
28606;BME280;46498;49.968;7.754;2022-12-13T19:48:36;96020.00;;;-5.43;100.00
28606;BME280;46498;49.968;7.754;2022-12-13T19:53:38;96027.00;;;-5.47;100.00
28606;BME280;46498;49.968;7.754;2022-12-13T19:58:39;96021.00;;;-5.42;100.00
28606;BME280;46498;49.968;7.754;2022-12-13T20:03:42;96012.00;;;-5.55;100.00
28606;BME280;46498;49.968;7.754;2022-12-13T20:08:45;96000.00;;;-5.47;100.00
28606;BME280;46498;49.968;7.754;2022-12-13T20:13:47;96014.00;;;-5.37;100.00
28606;BME280;46498;49.968;7.754;2022-12-13T20:18:53;96006.00;;;-5.35;100.00
28606;BME280;46498;49.968;7.754;2022-12-13T20:23:56;96006.00;;;-5.35;100.00
28606;BME280;46498;49.968;7.754;2022-12-13T20:28:58;95987.00;;;-5.47;100.00
28606;BME280;46498;49.968;7.754;2022-12-13T20:34:01;95987.00;;;-5.49;100.00
28606;BME280;46498;49.968;7.754;2022-12-13T20:39:04;95989.00;;;-5.42;100.00
28606;BME280;46498;49.968;7.754;2022-12-13T20:44:06;95981.00;;;-5.34;100.00
28606;BME280;46498;49.968;7.754;2022-12-13T20:49:09;95969.00;;;-5.35;100.00
28606;BME280;46498;49.968;7.754;2022-12-13T20:54:10;95957.00;;;-5.33;100.00
28606;BME280;46498;49.968;7.754;2022-12-13T20:59:11;95970.00;;;-5.44;100.00
28606;BME280;46498;49.968;7.754;2022-12-13T21:04:12;95967.00;;;-5.43;100.00
28606;BME280;46498;49.968;7.754;2022-12-13T21:09:13;95952.00;;;-5.34;100.00
28606;BME280;46498;49.968;7.754;2022-12-13T21:14:22;95965.00;;;-5.33;100.00
28606;BME280;46498;49.968;7.754;2022-12-13T21:19:29;95947.00;;;-5.32;100.00
28606;BME280;46498;49.968;7.754;2022-12-13T21:24:40;95941.00;;;-5.31;100.00
28606;BME280;46498;49.968;7.754;2022-12-13T21:29:40;95923.00;;;-5.34;100.00
28606;BME280;46498;49.968;7.754;2022-12-13T21:34:41;95913.00;;;-5.30;100.00
28606;BME280;46498;49.968;7.754;2022-12-13T21:39:43;95891.00;;;-5.20;100.00
28606;BME280;46498;49.968;7.754;2022-12-13T21:44:43;95880.00;;;-5.24;100.00
28606;BME280;46498;49.968;7.754;2022-12-13T21:49:44;95875.00;;;-5.36;100.00
28606;BME280;46498;49.968;7.754;2022-12-13T21:54:49;95877.00;;;-5.45;100.00
28606;BME280;46498;49.968;7.754;2022-12-13T22:00:00;95866.00;;;-5.41;100.00
28606;BME280;46498;49.968;7.754;2022-12-13T22:05:01;95858.00;;;-5.41;100.00
28606;BME280;46498;49.968;7.754;2022-12-13T22:10:02;95860.00;;;-5.49;100.00
28606;BME280;46498;49.968;7.754;2022-12-13T22:15:06;95842.00;;;-5.48;100.00
28606;BME280;46498;49.968;7.754;2022-12-13T22:20:10;95838.00;;;-5.39;100.00
28606;BME280;46498;49.968;7.754;2022-12-13T22:25:12;95826.00;;;-5.40;100.00
28606;BME280;46498;49.968;7.754;2022-12-13T22:30:13;95808.00;;;-5.45;100.00
28606;BME280;46498;49.968;7.754;2022-12-13T22:35:13;95822.00;;;-5.39;100.00
28606;BME280;46498;49.968;7.754;2022-12-13T22:40:14;95811.00;;;-5.33;100.00
28606;BME280;46498;49.968;7.754;2022-12-13T22:45:16;95803.00;;;-5.26;100.00
28606;BME280;46498;49.968;7.754;2022-12-13T22:50:17;95807.00;;;-5.25;100.00
28606;BME280;46498;49.968;7.754;2022-12-13T22:55:20;95802.00;;;-5.33;100.00
28606;BME280;46498;49.968;7.754;2022-12-13T23:00:21;95816.00;;;-5.34;100.00
28606;BME280;46498;49.968;7.754;2022-12-13T23:05:21;95805.00;;;-5.28;100.00
28606;BME280;46498;49.968;7.754;2022-12-13T23:10:22;95800.00;;;-5.28;100.00
28606;BME280;46498;49.968;7.754;2022-12-13T23:15:41;95791.00;;;-5.32;100.00
28606;BME280;46498;49.968;7.754;2022-12-13T23:20:49;95799.00;;;-5.22;100.00
28606;BME280;46498;49.968;7.754;2022-12-13T23:25:50;95794.00;;;-5.25;100.00
28606;BME280;46498;49.968;7.754;2022-12-13T23:30:51;95789.00;;;-5.23;100.00
28606;BME280;46498;49.968;7.754;2022-12-13T23:36:07;95785.00;;;-5.24;100.00
28606;BME280;46498;49.968;7.754;2022-12-13T23:41:15;95780.00;;;-5.23;100.00
28606;BME280;46498;49.968;7.754;2022-12-13T23:46:28;95782.00;;;-5.17;100.00
28606;BME280;46498;49.968;7.754;2022-12-13T23:51:30;95779.00;;;-5.27;100.00
28606;BME280;46498;49.968;7.754;2022-12-13T23:56:31;95773.00;;;-5.23;100.00
